Time;durP1;ratioP1;P1;durP2;ratioP2;P2;SDS_P1;SDS_P2;PMS_P1;PMS_P2;Temp;Humidity;BMP_temperature;BMP_pressure;BME280_temperature;BME280_humidity;BME280_pressure;Samples;Min_cycle;Max_cycle;Signal;HPM_P1;HPM_P2
2022/02/27 00:01:38;;;;;;;17.58;12.02;;;;;;;;;;5092193;28;20085;-66
2022/02/27 00:04:04;;;;;;;18.75;13.02;;;;;;;;;;5093828;28;20028;-67
2022/02/27 00:06:30;;;;;;;15.75;11.43;;;;;;;;;;5093756;28;20024;-67
2022/02/27 00:08:58;;;;;;;18.63;13.07;;;;;;;;;;5093739;28;20034;-66
2022/02/27 00:11:24;;;;;;;17.88;12.10;;;;;;;;;;5093692;28;20453;-68
2022/02/27 00:13:50;;;;;;;21.38;13.70;;;;;;;;;;5097104;28;20130;-67
2022/02/27 00:16:16;;;;;;;19.45;13.40;;;;;;;;;;5094155;28;20031;-67
2022/02/27 00:18:43;;;;;;;17.38;12.90;;;;;;;;;;5112829;28;20015;-67
2022/02/27 00:21:09;;;;;;;17.88;13.40;;;;;;;;;;5113103;28;20030;-68
2022/02/27 00:23:35;;;;;;;20.55;13.20;;;;;;;;;;5094777;28;20069;-66
2022/02/27 00:26:01;;;;;;;21.52;14.23;;;;;;;;;;5113018;28;20042;-70
2022/02/27 00:28:27;;;;;;;21.27;13.65;;;;;;;;;;5094725;28;20027;-70
2022/02/27 00:30:57;;;;;;;17.95;13.35;;;;;;;;;;5112972;28;20122;-70
2022/02/27 00:33:23;;;;;;;22.63;14.32;;;;;;;;;;5094691;28;20467;-68
2022/02/27 00:35:50;;;;;;;21.67;15.25;;;;;;;;;;5112947;28;20031;-69
2022/02/27 00:38:16;;;;;;;21.80;15.13;;;;;;;;;;5112879;28;20119;-67
2022/02/27 00:40:42;;;;;;;20.10;13.93;;;;;;;;;;5112871;28;20058;-70
2022/02/27 00:43:08;;;;;;;20.80;14.73;;;;;;;;;;5094500;28;20023;-70
2022/02/27 00:45:34;;;;;;;22.95;16.20;;;;;;;;;;5112790;28;20487;-71
2022/02/27 00:48:01;;;;;;;20.58;14.05;;;;;;;;;;5112797;28;20468;-70
2022/02/27 00:50:27;;;;;;;23.75;15.02;;;;;;;;;;5112756;28;20015;-67
2022/02/27 00:52:53;;;;;;;24.05;16.17;;;;;;;;;;5093766;28;20476;-70
2022/02/27 00:55:20;;;;;;;27.83;16.73;;;;;;;;;;5112102;28;20180;-68
2022/02/27 00:57:46;;;;;;;24.33;16.75;;;;;;;;;;5112643;28;20035;-68
2022/02/27 01:00:13;;;;;;;24.30;16.40;;;;;;;;;;5112625;28;20028;-68
2022/02/27 01:02:39;;;;;;;25.80;16.90;;;;;;;;;;5112580;28;20028;-70
2022/02/27 01:05:06;;;;;;;27.33;16.98;;;;;;;;;;5112242;28;20023;-69
2022/02/27 01:07:32;;;;;;;28.98;17.45;;;;;;;;;;5094173;28;20476;-69
2022/02/27 01:09:58;;;;;;;26.35;16.80;;;;;;;;;;5112177;28;20032;-67
2022/02/27 01:12:24;;;;;;;24.20;16.58;;;;;;;;;;5112746;28;20095;-67
2022/02/27 01:14:51;;;;;;;23.45;16.95;;;;;;;;;;5049668;28;1266055;-67
2022/02/27 01:17:17;;;;;;;24.65;17.75;;;;;;;;;;5113245;28;20028;-67
2022/02/27 01:19:43;;;;;;;23.13;16.80;;;;;;;;;;5094915;28;20024;-68
2022/02/27 01:22:09;;;;;;;26.15;17.42;;;;;;;;;;5113229;28;20081;-69
2022/02/27 01:24:36;;;;;;;29.67;18.98;;;;;;;;;;5113206;28;20032;-68
2022/02/27 01:27:03;;;;;;;26.80;16.83;;;;;;;;;;5094906;28;20433;-67
2022/02/27 01:29:29;;;;;;;25.73;17.00;;;;;;;;;;5113162;28;20026;-68
2022/02/27 01:31:55;;;;;;;25.55;17.60;;;;;;;;;;5094919;28;20122;-68
2022/02/27 01:34:21;;;;;;;28.80;17.60;;;;;;;;;;5113129;28;20020;-67
2022/02/27 01:36:48;;;;;;;28.48;19.10;;;;;;;;;;5113005;28;20036;-67
2022/02/27 01:39:14;;;;;;;27.05;19.05;;;;;;;;;;5113036;28;20031;-66
2022/02/27 01:41:40;;;;;;;28.92;17.77;;;;;;;;;;5113296;28;20038;-68
2022/02/27 01:44:06;;;;;;;26.75;18.55;;;;;;;;;;5113050;28;20034;-67
2022/02/27 01:46:36;;;;;;;25.75;18.02;;;;;;;;;;5094705;28;20119;-67
2022/02/27 01:49:02;;;;;;;28.33;18.65;;;;;;;;;;5113042;28;20028;-69
2022/02/27 01:51:29;;;;;;;29.65;18.80;;;;;;;;;;5112918;28;20097;-67
2022/02/27 01:53:55;;;;;;;27.58;17.83;;;;;;;;;;5094621;28;20458;-69
2022/02/27 01:56:21;;;;;;;26.60;18.23;;;;;;;;;;5113107;28;20046;-68
2022/02/27 01:58:48;;;;;;;27.75;19.23;;;;;;;;;;5094687;28;20043;-67
2022/02/27 02:01:14;;;;;;;32.40;20.55;;;;;;;;;;5112846;28;20024;-69
2022/02/27 02:03:40;;;;;;;29.73;19.48;;;;;;;;;;5112862;28;20031;-68
2022/02/27 02:06:07;;;;;;;28.45;19.05;;;;;;;;;;5115447;28;20365;-69
2022/02/27 02:08:33;;;;;;;30.45;19.90;;;;;;;;;;5116533;28;20028;-66
2022/02/27 02:10:59;;;;;;;32.38;20.67;;;;;;;;;;5116397;28;20085;-70
2022/02/27 02:13:26;;;;;;;28.27;19.10;;;;;;;;;;5116200;28;20031;-68
2022/02/27 02:15:58;;;;;;;32.83;20.80;;;;;;;;;;5116313;28;20461;-68
2022/02/27 02:18:25;;;;;;;30.38;19.73;;;;;;;;;;5115970;28;20043;-70
2022/02/27 02:20:51;;;;;;;33.10;20.73;;;;;;;;;;5116267;28;20102;-71
2022/02/27 02:23:17;;;;;;;33.17;20.35;;;;;;;;;;5116211;28;20107;-71
2022/02/27 02:25:43;;;;;;;32.03;21.15;;;;;;;;;;5116381;28;20027;-69
2022/02/27 02:28:09;;;;;;;30.23;19.95;;;;;;;;;;5097842;28;20028;-69
2022/02/27 02:30:36;;;;;;;31.42;21.38;;;;;;;;;;5116041;28;20028;-70
2022/02/27 02:33:02;;;;;;;31.30;20.17;;;;;;;;;;5097692;28;20460;-69
2022/02/27 02:35:29;;;;;;;30.75;21.02;;;;;;;;;;5115931;28;20031;-70
2022/02/27 02:37:56;;;;;;;33.60;21.45;;;;;;;;;;5097525;28;20593;-70
2022/02/27 02:40:23;;;;;;;32.33;21.25;;;;;;;;;;5097515;28;20028;-71
2022/02/27 02:42:49;;;;;;;30.35;20.48;;;;;;;;;;5097478;28;20062;-69
2022/02/27 02:45:15;;;;;;;31.10;21.45;;;;;;;;;;5097482;28;20483;-71
2022/02/27 02:47:42;;;;;;;30.15;19.83;;;;;;;;;;5115759;28;20472;-70
2022/02/27 02:50:10;;;;;;;33.10;21.45;;;;;;;;;;5115703;28;20055;-70
2022/02/27 02:52:36;;;;;;;31.13;22.08;;;;;;;;;;5097290;28;20024;-72
2022/02/27 02:55:07;;;;;;;34.60;21.80;;;;;;;;;;5096929;28;20020;-71
2022/02/27 02:57:33;;;;;;;36.53;20.73;;;;;;;;;;5097184;28;20427;-70
2022/02/27 03:00:00;;;;;;;35.83;22.08;;;;;;;;;;5115510;28;20024;-69
2022/02/27 03:02:26;;;;;;;30.52;21.08;;;;;;;;;;5115433;28;20030;-69
2022/02/27 03:04:53;;;;;;;31.65;20.88;;;;;;;;;;5115383;28;20034;-69
2022/02/27 03:07:19;;;;;;;32.53;20.67;;;;;;;;;;5115369;28;20076;-70
2022/02/27 03:09:45;;;;;;;30.92;19.73;;;;;;;;;;5096945;28;20019;-67
2022/02/27 03:12:11;;;;;;;29.60;19.63;;;;;;;;;;5115261;28;20031;-68
2022/02/27 03:14:38;;;;;;;30.85;20.83;;;;;;;;;;5114808;28;20462;-69
2022/02/27 03:17:04;;;;;;;27.88;19.45;;;;;;;;;;5114084;28;20026;-68
2022/02/27 03:19:30;;;;;;;29.40;20.75;;;;;;;;;;5114847;28;20106;-70
2022/02/27 03:21:56;;;;;;;26.55;19.25;;;;;;;;;;5115353;28;20104;-71
2022/02/27 03:24:22;;;;;;;26.77;18.02;;;;;;;;;;5114983;28;20034;-68
2022/02/27 03:26:49;;;;;;;28.73;18.52;;;;;;;;;;5115205;28;20046;-69
2022/02/27 03:29:15;;;;;;;26.55;17.98;;;;;;;;;;5114996;28;20059;-69
2022/02/27 03:31:41;;;;;;;27.25;19.25;;;;;;;;;;5114509;28;20024;-69
2022/02/27 03:34:07;;;;;;;29.83;19.33;;;;;;;;;;5114818;28;20024;-69
2022/02/27 03:36:33;;;;;;;26.73;18.70;;;;;;;;;;5114897;28;20084;-70
2022/02/27 03:39:00;;;;;;;29.38;19.33;;;;;;;;;;5096522;28;20031;-69
2022/02/27 03:41:26;;;;;;;27.65;18.98;;;;;;;;;;5096309;28;20023;-69
2022/02/27 03:43:52;;;;;;;25.40;18.50;;;;;;;;;;5096231;28;20024;-71
2022/02/27 03:46:23;;;;;;;28.73;18.52;;;;;;;;;;5114570;28;20028;-68
2022/02/27 03:48:49;;;;;;;28.30;18.63;;;;;;;;;;5114292;28;20098;-69
2022/02/27 03:51:16;;;;;;;26.33;16.95;;;;;;;;;;5114543;28;20114;-70
2022/02/27 03:53:42;;;;;;;26.13;18.10;;;;;;;;;;5114432;28;20042;-69
2022/02/27 03:56:08;;;;;;;30.38;18.63;;;;;;;;;;5096073;28;20460;-70
2022/02/27 03:58:34;;;;;;;24.42;17.10;;;;;;;;;;5114409;28;20035;-69
2022/02/27 04:01:00;;;;;;;24.13;16.90;;;;;;;;;;5114297;28;20024;-69
2022/02/27 04:03:27;;;;;;;25.80;17.33;;;;;;;;;;5114272;28;20093;-70
2022/02/27 04:05:53;;;;;;;28.13;18.15;;;;;;;;;;5095871;28;20015;-72
2022/02/27 04:08:19;;;;;;;25.50;17.35;;;;;;;;;;5114230;28;20031;-71
2022/02/27 04:10:45;;;;;;;29.13;18.63;;;;;;;;;;5095881;28;20023;-70
2022/02/27 04:13:11;;;;;;;29.27;18.80;;;;;;;;;;5113803;28;20020;-72
2022/02/27 04:15:38;;;;;;;30.88;17.92;;;;;;;;;;5113564;28;20145;-70
2022/02/27 04:18:04;;;;;;;25.35;17.55;;;;;;;;;;5095659;28;20027;-68
2022/02/27 04:20:30;;;;;;;28.33;18.08;;;;;;;;;;5113991;28;20107;-71
2022/02/27 04:22:56;;;;;;;26.75;19.55;;;;;;;;;;5095661;28;20059;-71
2022/02/27 04:25:22;;;;;;;23.60;17.13;;;;;;;;;;5114183;28;20127;-72
2022/02/27 04:27:49;;;;;;;26.92;16.25;;;;;;;;;;5113644;28;20137;-70
2022/02/27 04:30:15;;;;;;;22.10;15.07;;;;;;;;;;5113879;28;20364;-69
2022/02/27 04:32:41;;;;;;;23.58;16.60;;;;;;;;;;5113756;28;20027;-71
2022/02/27 04:35:08;;;;;;;22.88;15.95;;;;;;;;;;5113772;28;20422;-71
2022/02/27 04:37:34;;;;;;;24.25;15.63;;;;;;;;;;5113645;28;20383;-69
2022/02/27 04:40:00;;;;;;;22.27;15.75;;;;;;;;;;5113754;28;20100;-68
2022/02/27 04:42:27;;;;;;;23.15;15.40;;;;;;;;;;5113653;28;20023;-68
2022/02/27 04:44:53;;;;;;;22.13;15.75;;;;;;;;;;5113579;28;20030;-69
2022/02/27 04:47:19;;;;;;;19.73;14.73;;;;;;;;;;5113652;28;20379;-71
2022/02/27 04:49:48;;;;;;;23.90;15.75;;;;;;;;;;5095272;28;20032;-68
2022/02/27 04:52:15;;;;;;;19.77;14.18;;;;;;;;;;5095340;28;20460;-68
2022/02/27 04:54:41;;;;;;;21.73;14.43;;;;;;;;;;5113530;28;20420;-68
2022/02/27 04:57:07;;;;;;;19.77;13.68;;;;;;;;;;5113404;28;20031;-69
2022/02/27 04:59:33;;;;;;;22.00;15.32;;;;;;;;;;5113506;28;20059;-68
2022/02/27 05:02:00;;;;;;;22.45;14.85;;;;;;;;;;5113693;28;20032;-68
2022/02/27 05:04:26;;;;;;;22.33;14.52;;;;;;;;;;5113424;28;20028;-68
2022/02/27 05:06:52;;;;;;;23.75;15.40;;;;;;;;;;5113353;28;20027;-68
2022/02/27 05:09:19;;;;;;;19.77;13.63;;;;;;;;;;5095163;28;20028;-69
2022/02/27 05:11:46;;;;;;;21.75;13.25;;;;;;;;;;5113340;28;20047;-68
2022/02/27 05:14:13;;;;;;;19.75;13.98;;;;;;;;;;5091189;28;20052;-70
2022/02/27 05:16:40;;;;;;;23.27;13.80;;;;;;;;;;5092835;28;20032;-68
2022/02/27 05:19:06;;;;;;;21.27;12.90;;;;;;;;;;5091702;28;20036;-66
2022/02/27 05:21:33;;;;;;;20.52;14.05;;;;;;;;;;5092894;28;20032;-66
2022/02/27 05:24:04;;;;;;;18.88;12.98;;;;;;;;;;5092880;28;20057;-69
2022/02/27 05:26:31;;;;;;;18.02;12.88;;;;;;;;;;5092967;28;20032;-67
2022/02/27 05:28:57;;;;;;;18.85;11.60;;;;;;;;;;5091298;28;20024;-69
2022/02/27 05:31:24;;;;;;;18.55;12.38;;;;;;;;;;5092846;28;20032;-68
2022/02/27 05:33:50;;;;;;;19.50;12.65;;;;;;;;;;5092828;28;20103;-70
2022/02/27 05:36:17;;;;;;;16.17;12.70;;;;;;;;;;5092685;28;20039;-70
2022/02/27 05:38:43;;;;;;;16.67;12.15;;;;;;;;;;5092708;28;20031;-67
2022/02/27 05:41:09;;;;;;;19.95;12.50;;;;;;;;;;5095645;28;20024;-66
2022/02/27 05:43:36;;;;;;;18.10;12.45;;;;;;;;;;5095229;28;20024;-68
2022/02/27 05:46:02;;;;;;;22.25;13.13;;;;;;;;;;5096529;28;20016;-69
2022/02/27 05:48:28;;;;;;;19.77;13.02;;;;;;;;;;5096756;28;20032;-69
2022/02/27 05:50:54;;;;;;;20.02;13.18;;;;;;;;;;5096475;28;20024;-68
2022/02/27 05:53:20;;;;;;;18.40;12.77;;;;;;;;;;5095065;28;20430;-69
2022/02/27 05:55:47;;;;;;;16.88;12.40;;;;;;;;;;5095080;28;20031;-69
2022/02/27 05:58:14;;;;;;;18.33;13.05;;;;;;;;;;5096234;28;20035;-69
2022/02/27 06:00:40;;;;;;;16.27;12.45;;;;;;;;;;5096287;28;20028;-68
2022/02/27 06:03:06;;;;;;;20.58;12.40;;;;;;;;;;5094936;28;20024;-69
2022/02/27 06:05:32;;;;;;;15.60;11.65;;;;;;;;;;5096127;28;20028;-68
2022/02/27 06:07:58;;;;;;;16.80;11.93;;;;;;;;;;5096100;28;20362;-69
2022/02/27 06:10:25;;;;;;;15.48;11.68;;;;;;;;;;5094849;28;20024;-71
2022/02/27 06:12:51;;;;;;;18.00;12.13;;;;;;;;;;5096067;28;20063;-70
2022/02/27 06:15:17;;;;;;;16.67;11.00;;;;;;;;;;5111946;28;20049;-69
2022/02/27 06:17:43;;;;;;;17.20;11.82;;;;;;;;;;5115972;28;20028;-70
2022/02/27 06:20:10;;;;;;;18.58;12.65;;;;;;;;;;5098036;28;20028;-69
2022/02/27 06:22:40;;;;;;;18.00;12.05;;;;;;;;;;5116287;28;20131;-70
2022/02/27 06:25:07;;;;;;;20.73;12.90;;;;;;;;;;5116232;28;20063;-68
2022/02/27 06:27:33;;;;;;;18.73;13.55;;;;;;;;;;5116125;28;20028;-67
2022/02/27 06:29:59;;;;;;;23.10;14.32;;;;;;;;;;5116190;28;20027;-67
2022/02/27 06:32:25;;;;;;;21.73;13.82;;;;;;;;;;5116044;28;20056;-68
2022/02/27 06:34:51;;;;;;;20.60;13.60;;;;;;;;;;5116013;28;20023;-65
2022/02/27 06:37:18;;;;;;;21.92;13.50;;;;;;;;;;5116054;28;20156;-65
2022/02/27 06:39:44;;;;;;;21.50;14.35;;;;;;;;;;5097655;28;20077;-66
2022/02/27 06:42:11;;;;;;;22.17;14.40;;;;;;;;;;5115843;28;20480;-66
2022/02/27 06:44:37;;;;;;;20.92;14.52;;;;;;;;;;5087991;28;20031;-67
2022/02/27 06:47:03;;;;;;;21.33;14.23;;;;;;;;;;5095148;28;20067;-66
2022/02/27 06:49:29;;;;;;;19.63;12.80;;;;;;;;;;5077049;28;20123;-68
2022/02/27 06:51:56;;;;;;;20.35;12.50;;;;;;;;;;5075525;28;20415;-68
2022/02/27 06:54:23;;;;;;;21.95;13.57;;;;;;;;;;5095168;28;20479;-67
2022/02/27 06:56:50;;;;;;;19.92;13.07;;;;;;;;;;5094801;28;20027;-65
2022/02/27 06:59:17;;;;;;;17.00;12.05;;;;;;;;;;5094992;28;20089;-65
2022/02/27 07:01:43;;;;;;;18.35;12.55;;;;;;;;;;5094982;28;20434;-70
2022/02/27 07:04:09;;;;;;;22.10;14.02;;;;;;;;;;5076730;28;20024;-67
2022/02/27 07:06:35;;;;;;;20.40;12.05;;;;;;;;;;5081882;28;20547;-68
2022/02/27 07:09:02;;;;;;;17.75;11.95;;;;;;;;;;5087643;28;20023;-69
2022/02/27 07:11:28;;;;;;;17.02;12.43;;;;;;;;;;5114927;28;20388;-68
2022/02/27 07:13:55;;;;;;;15.88;10.65;;;;;;;;;;5114678;28;20043;-68
2022/02/27 07:16:24;;;;;;;16.92;10.55;;;;;;;;;;5114945;28;20031;-66
2022/02/27 07:18:53;;;;;;;16.73;11.05;;;;;;;;;;5114513;28;20028;-67
2022/02/27 07:21:19;;;;;;;18.75;10.75;;;;;;;;;;5114994;28;20035;-66
2022/02/27 07:23:45;;;;;;;17.50;11.70;;;;;;;;;;5114610;28;20024;-66
2022/02/27 07:26:11;;;;;;;20.05;11.27;;;;;;;;;;5114838;28;20123;-68
2022/02/27 07:28:38;;;;;;;20.95;12.40;;;;;;;;;;5087194;28;20240;-68
2022/02/27 07:31:04;;;;;;;23.27;13.80;;;;;;;;;;5114747;28;20023;-67
2022/02/27 07:33:30;;;;;;;21.35;11.23;;;;;;;;;;5114707;28;20023;-68
2022/02/27 07:35:57;;;;;;;17.25;10.57;;;;;;;;;;5114421;28;20031;-67
2022/02/27 07:38:23;;;;;;;17.25;10.57;;;;;;;;;;5114584;28;20027;-68
2022/02/27 07:40:51;;;;;;;14.57;9.75;;;;;;;;;;5114526;28;20055;-68
2022/02/27 07:43:18;;;;;;;10.90;8.98;;;;;;;;;;5114524;28;20028;-68
2022/02/27 07:45:46;;;;;;;13.13;9.43;;;;;;;;;;5096228;28;20088;-67
2022/02/27 07:48:13;;;;;;;14.30;8.63;;;;;;;;;;5114217;28;20023;-70
2022/02/27 07:50:39;;;;;;;14.13;8.93;;;;;;;;;;5096104;28;20099;-69
2022/02/27 07:53:05;;;;;;;15.00;8.95;;;;;;;;;;5114456;28;20024;-70
2022/02/27 07:55:32;;;;;;;13.13;8.70;;;;;;;;;;5114427;28;20024;-73
2022/02/27 07:57:59;;;;;;;11.93;8.00;;;;;;;;;;5114329;28;20039;-71
2022/02/27 08:00:25;;;;;;;13.32;8.70;;;;;;;;;;5095993;28;20035;-71
2022/02/27 08:02:52;;;;;;;12.95;8.00;;;;;;;;;;5113765;28;20028;-72
2022/02/27 08:05:18;;;;;;;10.82;6.97;;;;;;;;;;5114054;28;20107;-71
2022/02/27 08:07:47;;;;;;;14.95;7.68;;;;;;;;;;5095869;28;20028;-73
2022/02/27 08:10:13;;;;;;;13.00;7.60;;;;;;;;;;5114441;28;20028;-69
2022/02/27 08:12:43;;;;;;;14.35;8.13;;;;;;;;;;5095773;28;20027;-70
2022/02/27 08:15:10;;;;;;;12.00;8.63;;;;;;;;;;5113966;28;20047;-73
2022/02/27 08:17:37;;;;;;;13.27;8.20;;;;;;;;;;5113878;28;20031;-68
2022/02/27 08:20:04;;;;;;;13.45;7.60;;;;;;;;;;5095684;28;20036;-70
2022/02/27 08:22:30;;;;;;;12.88;7.75;;;;;;;;;;5114163;28;20059;-69
2022/02/27 08:24:56;;;;;;;12.80;7.97;;;;;;;;;;5113779;28;20026;-70
2022/02/27 08:27:23;;;;;;;11.32;8.25;;;;;;;;;;5095135;28;20032;-70
2022/02/27 08:29:49;;;;;;;18.80;8.15;;;;;;;;;;5095313;28;20470;-72
2022/02/27 08:32:16;;;;;;;13.00;7.88;;;;;;;;;;5095192;28;20023;-71
2022/02/27 08:34:43;;;;;;;14.27;7.50;;;;;;;;;;5113489;28;20032;-71
2022/02/27 08:37:09;;;;;;;12.65;7.45;;;;;;;;;;5095374;28;20418;-71
2022/02/27 08:39:35;;;;;;;13.95;8.73;;;;;;;;;;5113431;28;20088;-70
2022/02/27 08:42:02;;;;;;;10.65;7.35;;;;;;;;;;5095321;28;20024;-71
2022/02/27 08:44:30;;;;;;;9.45;7.55;;;;;;;;;;5095267;28;20035;-70
2022/02/27 08:46:58;;;;;;;13.93;7.57;;;;;;;;;;5095091;28;20027;-69
2022/02/27 08:49:25;;;;;;;11.20;7.13;;;;;;;;;;5113432;28;20378;-69
2022/02/27 08:51:51;;;;;;;13.07;7.65;;;;;;;;;;5113487;28;20130;-70
2022/02/27 08:54:18;;;;;;;15.43;7.55;;;;;;;;;;5113448;28;20024;-70
2022/02/27 08:56:44;;;;;;;10.73;6.70;;;;;;;;;;5113279;28;20032;-69
2022/02/27 08:59:11;;;;;;;13.00;7.40;;;;;;;;;;5094986;28;20095;-69
2022/02/27 09:01:37;;;;;;;11.68;7.78;;;;;;;;;;5094973;28;20112;-70
2022/02/27 09:04:03;;;;;;;15.02;8.43;;;;;;;;;;5095069;28;20024;-74
2022/02/27 09:06:29;;;;;;;10.50;6.53;;;;;;;;;;5094918;28;20023;-69
2022/02/27 09:08:55;;;;;;;11.57;7.05;;;;;;;;;;5104820;28;20080;-71
2022/02/27 09:11:22;;;;;;;11.43;7.45;;;;;;;;;;5074398;28;20028;-70
2022/02/27 09:13:48;;;;;;;11.70;7.38;;;;;;;;;;5074143;28;20135;-69
2022/02/27 09:16:15;;;;;;;12.02;7.57;;;;;;;;;;5077785;28;20433;-67
2022/02/27 09:18:41;;;;;;;11.25;6.78;;;;;;;;;;5096795;28;20412;-69
2022/02/27 09:21:08;;;;;;;10.60;7.55;;;;;;;;;;5078630;28;20028;-69
2022/02/27 09:23:35;;;;;;;12.52;7.30;;;;;;;;;;5103023;28;20055;-70
2022/02/27 09:26:01;;;;;;;12.10;7.22;;;;;;;;;;5105071;28;20032;-70
2022/02/27 09:28:28;;;;;;;13.20;7.38;;;;;;;;;;5097493;28;20092;-71
2022/02/27 09:30:54;;;;;;;11.18;6.45;;;;;;;;;;5096721;28;20031;-70
2022/02/27 09:33:21;;;;;;;14.27;7.25;;;;;;;;;;5096241;28;20392;-76
2022/02/27 09:35:47;;;;;;;14.02;7.50;;;;;;;;;;5078217;28;20134;-71
2022/02/27 09:38:13;;;;;;;11.65;6.70;;;;;;;;;;5078299;28;20028;-70
2022/02/27 09:40:39;;;;;;;13.63;7.97;;;;;;;;;;5096600;28;20052;-70
2022/02/27 09:43:06;;;;;;;13.25;7.30;;;;;;;;;;5096333;28;20028;-70
2022/02/27 09:45:32;;;;;;;20.85;9.85;;;;;;;;;;5096114;28;20027;-71
2022/02/27 09:47:58;;;;;;;10.27;6.28;;;;;;;;;;5095921;28;20153;-70
2022/02/27 09:50:25;;;;;;;15.55;7.57;;;;;;;;;;5078083;28;20472;-70
2022/02/27 09:52:52;;;;;;;11.82;6.53;;;;;;;;;;5078156;28;20020;-71
2022/02/27 09:55:19;;;;;;;9.73;5.30;;;;;;;;;;5096298;28;20531;-70
2022/02/27 09:57:49;;;;;;;17.60;8.80;;;;;;;;;;5077952;28;20471;-71
2022/02/27 10:00:17;;;;;;;16.45;8.85;;;;;;;;;;5095835;28;20443;-69
2022/02/27 10:03:22;;;;;;;16.48;8.00;;;;;;;;;;5096136;28;20020;-72
2022/02/27 10:05:48;;;;;;;13.80;8.15;;;;;;;;;;4977589;28;20053;-70
2022/02/27 10:08:15;;;;;;;14.32;6.90;;;;;;;;;;4977679;28;20026;-72
2022/02/27 10:10:55;;;;;;;12.40;6.07;;;;;;;;;;4993937;28;20035;-69
2022/02/27 10:13:33;;;;;;;12.18;6.82;;;;;;;;;;4994031;28;20038;-71
2022/02/27 10:16:03;;;;;;;6.43;4.45;;;;;;;;;;4993920;28;20046;-69
2022/02/27 10:18:37;;;;;;;6.40;4.28;;;;;;;;;;4993788;28;20069;-72
2022/02/27 10:21:03;;;;;;;13.20;6.28;;;;;;;;;;4993911;28;20033;-73
2022/02/27 10:23:30;;;;;;;9.43;6.45;;;;;;;;;;4993823;28;20500;-70
2022/02/27 10:25:56;;;;;;;10.38;6.00;;;;;;;;;;4993406;28;20026;-72
2022/02/27 10:28:22;;;;;;;14.52;5.72;;;;;;;;;;4993824;28;20045;-69
2022/02/27 10:30:51;;;;;;;10.18;5.95;;;;;;;;;;4977370;28;20052;-70
2022/02/27 10:33:17;;;;;;;8.60;5.25;;;;;;;;;;4993380;28;20413;-70
2022/02/27 10:35:48;;;;;;;8.65;5.32;;;;;;;;;;4993987;28;20065;-70
2022/02/27 10:38:46;;;;;;;10.07;5.13;;;;;;;;;;5095394;28;20461;-71
2022/02/27 10:41:21;;;;;;;12.73;4.70;;;;;;;;;;5095747;28;20022;-70
2022/02/27 10:43:47;;;;;;;8.10;5.28;;;;;;;;;;5095447;28;20024;-69
2022/02/27 10:46:14;;;;;;;8.88;5.70;;;;;;;;;;5095009;28;20415;-71
2022/02/27 10:48:40;;;;;;;17.08;6.45;;;;;;;;;;5094489;28;20020;-71
2022/02/27 10:51:16;;;;;;;9.60;5.53;;;;;;;;;;5093830;28;20023;-72
2022/02/27 10:53:44;;;;;;;10.30;5.80;;;;;;;;;;5095221;28;20029;-73
2022/02/27 10:56:11;;;;;;;10.15;5.50;;;;;;;;;;5095123;28;20016;-72
2022/02/27 10:58:41;;;;;;;12.57;4.97;;;;;;;;;;5094983;28;20162;-71
2022/02/27 11:01:09;;;;;;;10.23;5.35;;;;;;;;;;5095035;28;20104;-72
2022/02/27 11:03:36;;;;;;;7.38;4.43;;;;;;;;;;5076778;28;20020;-71
2022/02/27 11:06:03;;;;;;;8.30;4.60;;;;;;;;;;5076492;28;20047;-70
2022/02/27 11:08:29;;;;;;;9.30;5.22;;;;;;;;;;5076742;28;20092;-69
2022/02/27 11:10:55;;;;;;;6.50;4.70;;;;;;;;;;5076527;28;20024;-70
2022/02/27 11:13:22;;;;;;;7.78;4.63;;;;;;;;;;5095057;28;20107;-70
2022/02/27 11:15:50;;;;;;;8.10;5.00;;;;;;;;;;5075996;28;20188;-70
2022/02/27 11:18:17;;;;;;;9.68;5.70;;;;;;;;;;5094645;28;20077;-71
2022/02/27 11:20:44;;;;;;;7.53;5.03;;;;;;;;;;5076405;28;20384;-69
2022/02/27 11:23:11;;;;;;;12.15;5.25;;;;;;;;;;5076469;28;20387;-71
2022/02/27 11:25:37;;;;;;;8.20;4.45;;;;;;;;;;5076427;28;20056;-70
2022/02/27 11:28:05;;;;;;;5.97;3.33;;;;;;;;;;5076317;28;20067;-70
2022/02/27 11:30:32;;;;;;;10.27;4.35;;;;;;;;;;5094413;28;20028;-70
2022/02/27 11:33:05;;;;;;;9.00;3.83;;;;;;;;;;5094783;28;20394;-70
2022/02/27 11:35:43;;;;;;;8.07;4.38;;;;;;;;;;5094543;28;20023;-70
2022/02/27 11:38:19;;;;;;;9.25;5.55;;;;;;;;;;5093491;28;20024;-71
2022/02/27 11:40:56;;;;;;;7.75;4.38;;;;;;;;;;5094402;28;20035;-70
2022/02/27 11:43:40;;;;;;;12.10;4.63;;;;;;;;;;5094325;28;20024;-70
2022/02/27 11:46:10;;;;;;;10.63;5.10;;;;;;;;;;5094045;28;20020;-69
2022/02/27 11:48:57;;;;;;;8.65;4.20;;;;;;;;;;5075975;28;20036;-69
2022/02/27 11:51:39;;;;;;;9.75;5.13;;;;;;;;;;5075836;28;20105;-70
2022/02/27 11:54:13;;;;;;;8.43;4.78;;;;;;;;;;5094174;28;20249;-69
2022/02/27 11:56:41;;;;;;;10.00;4.93;;;;;;;;;;5093916;28;20028;-69
2022/02/27 11:59:09;;;;;;;7.57;4.63;;;;;;;;;;5075727;28;20024;-69
2022/02/27 12:01:47;;;;;;;7.35;3.70;;;;;;;;;;5093490;28;20461;-70
2022/02/27 12:04:23;;;;;;;7.53;4.65;;;;;;;;;;5075746;28;20085;-69
2022/02/27 12:07:04;;;;;;;7.28;4.18;;;;;;;;;;5093965;28;20016;-70
2022/02/27 12:09:49;;;;;;;7.68;4.45;;;;;;;;;;5093850;28;20020;-69
2022/02/27 12:12:34;;;;;;;9.63;4.80;;;;;;;;;;5096481;28;20410;-72
2022/02/27 12:15:20;;;;;;;14.10;6.28;;;;;;;;;;5074283;28;20099;-72
2022/02/27 12:18:05;;;;;;;13.82;6.57;;;;;;;;;;5088026;28;20048;-73
2022/02/27 12:20:43;;;;;;;13.30;6.05;;;;;;;;;;5093683;28;20024;-71
2022/02/27 12:23:13;;;;;;;11.88;5.22;;;;;;;;;;5093601;28;20111;-71
2022/02/27 12:25:42;;;;;;;9.45;4.93;;;11.60;80.30;;;;;;5093553;28;20032;-70
2022/02/27 12:28:08;;;;;;;16.95;4.90;;;11.90;78.80;;;;;;5093593;28;20039;-70
2022/02/27 12:30:35;;;;;;;17.35;6.25;;;;;;;;;;5093763;28;20443;-69
2022/02/27 12:33:08;;;;;;;11.65;5.57;;;;;;;;;;5093566;28;20024;-69
2022/02/27 12:35:35;;;;;;;11.73;4.88;;;;;;;;;;5092092;28;20423;-69
2022/02/27 12:38:05;;;;;;;11.32;4.72;;;;;;;;;;5093344;28;20032;-71
2022/02/27 12:40:33;;;;;;;9.02;5.03;;;;;;;;;;5091979;28;20032;-67
2022/02/27 12:43:06;;;;;;;9.77;4.60;;;;;;;;;;5092039;28;20094;-72
2022/02/27 12:51:21;;;;;;;21.92;7.65;;;;;;;;;;5093009;28;20035;-69
2022/02/27 12:53:52;;;;;;;11.80;5.93;;;;;;;;;;5093547;28;20469;-67
2022/02/27 12:56:25;;;;;;;13.27;6.13;;;;;;;;;;5091940;28;20025;-68
2022/02/27 12:58:53;;;;;;;12.32;5.78;;;;;;;;;;5090264;28;20645;-65
2022/02/27 13:01:27;;;;;;;17.15;8.70;;;;;;;;;;5071482;28;20028;-67
2022/02/27 13:04:05;;;;;;;11.55;6.55;;;;;;;;;;5071394;28;20058;-67
2022/02/27 13:06:35;;;;;;;12.43;7.45;;;;;;;;;;5071385;28;20024;-67
2022/02/27 13:09:05;;;;;;;18.52;7.95;;;;;;;;;;5072644;28;20033;-67
2022/02/27 13:11:45;;;;;;;16.52;8.65;;;;;;;;;;5071315;28;20075;-67
2022/02/27 13:14:12;;;;;;;15.35;7.47;;;;;;;;;;5077124;28;20140;-69
2022/02/27 13:16:39;;;;;;;17.02;8.20;;;;;;;;;;5092261;28;20020;-68
2022/02/27 13:19:06;;;;;;;12.48;6.43;;;;;;;;;;5092531;28;20032;-68
2022/02/27 13:21:32;;;;;;;15.80;6.65;;;;;;;;;;5092659;28;20031;-68
2022/02/27 13:23:59;;;;;;;7.88;4.47;;;;;;;;;;5092521;28;20107;-68
2022/02/27 13:26:27;;;;;;;10.50;4.68;;;;;;;;;;5077215;28;20016;-69
2022/02/27 13:28:57;;;;;;;19.10;6.88;;;;;;;;;;5092314;28;20391;-69
2022/02/27 13:31:24;;;;;;;12.23;5.65;;;;;;;;;;5094327;28;20029;-66
2022/02/27 13:33:51;;;;;;;15.13;6.15;;;;;;;;;;5113175;28;20372;-68
2022/02/27 13:36:18;;;;;;;13.93;5.70;;;;;;;;;;5094737;28;20028;-68
2022/02/27 13:38:53;;;;;;;11.40;5.65;;;;;;;;;;5094647;28;20043;-66
2022/02/27 13:41:35;;;;;;;15.85;4.97;;;12.10;77.70;;;;;;5094533;28;20028;-66
2022/02/27 13:44:02;;;;;;;14.07;7.18;;;;;;;;;;5112832;28;20016;-65
2022/02/27 13:46:30;;;;;;;11.13;5.15;;;;;;;;;;5112824;28;20016;-68
2022/02/27 13:49:09;;;;;;;10.23;5.10;;;;;;;;;;5093975;28;20024;-67
2022/02/27 13:51:35;;;;;;;11.98;5.47;;;;;;;;;;5112827;28;20367;-68
2022/02/27 13:54:16;;;;;;;7.32;4.35;;;12.50;99.90;;;;;;5104088;28;20024;-71
2022/02/27 13:57:05;;;;;;;17.43;6.73;;;12.50;92.80;;;;;;5092011;28;20020;-69
2022/02/27 13:59:38;;;;;;;16.02;6.93;;;;;;;;;;5092300;28;20028;-71
2022/02/27 14:02:04;;;;;;;10.20;5.22;;;;;;;;;;5095000;28;20016;-69
2022/02/27 14:04:30;;;;;;;6.70;4.20;;;;;;;;;;5095991;28;20020;-67
2022/02/27 14:06:56;;;;;;;11.43;5.10;;;;;;;;;;5095680;28;20024;-70
2022/02/27 14:09:22;;;;;;;12.40;5.13;;;12.60;99.90;;;;;;5095655;28;20031;-66
2022/02/27 14:11:48;;;;;;;15.85;6.75;;;12.50;96.10;;;;;;5095546;28;20107;-67
2022/02/27 14:14:14;;;;;;;13.32;6.47;;;;;;;;;;5095808;28;20063;-67
2022/02/27 14:16:42;;;;;;;9.50;4.22;;;;;;;;;;5077276;28;20464;-66
2022/02/27 14:19:09;;;;;;;7.90;4.13;;;;;;;;;;5078019;28;20024;-69
2022/02/27 14:21:39;;;;;;;9.30;4.63;;;;;;;;;;5095705;28;20032;-68
2022/02/27 14:24:06;;;;;;;17.35;5.00;;;;;;;;;;5095718;28;20103;-69
2022/02/27 14:26:34;;;;;;;14.73;7.25;;;;;;;;;;5094048;28;20020;-67
2022/02/27 14:29:06;;;;;;;12.35;5.63;;;;;;;;;;5093940;28;20120;-68
2022/02/27 14:31:45;;;;;;;17.38;6.65;;;;;;;;;;5081073;28;20065;-66